Time;durP1;ratioP1;P1;durP2;ratioP2;P2;SDS_P1;SDS_P2;PMS_P1;PMS_P2;Temp;Humidity;BMP_temperature;BMP_pressure;BME280_temperature;BME280_humidity;BME280_pressure;Samples;Min_cycle;Max_cycle;Signal;HPM_P1;HPM_P2
2021/08/15 00:01:03;;;;;;;41.85;31.38;;;;;;;;;;5052008;28;20498;-76
2021/08/15 00:03:28;;;;;;;46.35;33.10;;;;;;;;;;5052913;28;20495;-78
2021/08/15 00:05:54;;;;;;;43.10;31.40;;;;;;;;;;5055891;28;20075;-78
2021/08/15 00:08:20;;;;;;;53.00;34.55;;;;;;;;;;5052312;28;20049;-76
2021/08/15 00:10:45;;;;;;;55.13;38.53;;;;;;;;;;5051874;28;20127;-77
2021/08/15 00:13:11;;;;;;;52.95;37.95;;;;;;;;;;5051819;28;20021;-77
2021/08/15 00:15:36;;;;;;;51.60;39.38;;;;;;;;;;5051494;28;20403;-75
2021/08/15 00:18:02;;;;;;;49.35;34.42;;;;;;;;;;5051309;28;20506;-75
2021/08/15 00:20:28;;;;;;;49.75;35.42;;;;;;;;;;5051521;28;20025;-76
2021/08/15 00:22:53;;;;;;;50.92;37.10;;;;;;;;;;5051236;28;20029;-76
2021/08/15 00:25:19;;;;;;;58.10;44.60;;;;;;;;;;5051108;28;20029;-75
2021/08/15 00:27:45;;;;;;;70.93;50.00;;;;;;;;;;5051513;28;20044;-75
2021/08/15 00:30:11;;;;;;;75.93;54.13;;;;;;;;;;5051624;28;20070;-75
2021/08/15 00:32:37;;;;;;;72.03;55.10;;;;;;;;;;5050259;28;20407;-77
2021/08/15 00:35:04;;;;;;;86.25;61.72;;;;;;;;;;5051409;28;20021;-76
2021/08/15 00:37:30;;;;;;;94.32;66.82;;;;;;;;;;5051349;28;20029;-75
2021/08/15 00:39:56;;;;;;;88.70;67.28;;;;;;;;;;5052688;28;20025;-78
2021/08/15 00:42:23;;;;;;;88.53;65.22;;;;;;;;;;5038062;28;20368;-79
2021/08/15 00:44:49;;;;;;;83.75;63.28;;;;;;;;;;5055891;28;20025;-78
2021/08/15 00:47:15;;;;;;;91.78;63.58;;;;;;;;;;5034811;28;20083;-77
2021/08/15 00:49:40;;;;;;;92.60;69.45;;;;;;;;;;5051205;28;20144;-76
2021/08/15 00:52:06;;;;;;;92.97;69.25;;;;;;;;;;5051071;28;20052;-76
2021/08/15 00:54:31;;;;;;;95.50;68.97;;;;;;;;;;5051304;28;20028;-77
2021/08/15 00:56:57;;;;;;;91.40;69.20;;;;;;;;;;5051213;28;20033;-77
2021/08/15 00:59:23;;;;;;;93.75;66.28;;;;;;;;;;5051714;28;20032;-76
2021/08/15 01:01:52;;;;;;;79.95;62.97;;;;;;;;;;5051995;28;20033;-77
2021/08/15 01:04:18;;;;;;;85.82;62.75;;;;;;;;;;5054929;28;20032;-76
2021/08/15 01:06:45;;;;;;;83.38;62.88;;;;;;;;;;5054358;28;20040;-77
2021/08/15 01:09:10;;;;;;;88.35;63.25;;;;;;;;;;5054410;28;20144;-77
2021/08/15 01:11:36;;;;;;;85.13;61.65;;;;;;;;;;5036531;28;20066;-76
2021/08/15 01:14:04;;;;;;;83.70;59.92;;;;;;;;;;5055951;28;20025;-77
2021/08/15 01:16:29;;;;;;;82.10;59.03;;;;;;;;;;5054230;28;20483;-77
2021/08/15 01:18:55;;;;;;;81.38;58.70;;;;;;;;;;5054720;28;20036;-77
2021/08/15 01:21:21;;;;;;;76.85;58.10;;;;;;;;;;5054426;28;20024;-76
2021/08/15 01:23:46;;;;;;;48.80;36.40;;;;;;;;;;5054265;28;20036;-76
2021/08/15 01:26:16;;;;;;;42.47;30.30;;;;;;;;;;5054287;28;20052;-76
2021/08/15 01:28:41;;;;;;;43.10;30.77;;;;;;;;;;5053919;28;20024;-76
2021/08/15 01:31:11;;;;;;;51.55;35.72;;;;;;;;;;5054138;28;20387;-76
2021/08/15 01:33:40;;;;;;;44.65;29.35;;;;;;;;;;5054166;28;20116;-76
2021/08/15 01:36:07;;;;;;;47.85;31.98;;;;;;;;;;5046135;28;20031;-76
2021/08/15 01:38:33;;;;;;;48.60;31.02;;;;;;;;;;5053903;28;20495;-76
2021/08/15 01:40:59;;;;;;;39.97;31.10;;;;;;;;;;5053688;28;20029;-76
2021/08/15 01:43:25;;;;;;;41.20;31.35;;;;;;;;;;5054055;28;20037;-76
2021/08/15 01:45:51;;;;;;;43.92;31.08;;;;;;;;;;5053697;28;20029;-76
2021/08/15 01:48:17;;;;;;;42.53;33.05;;;;;;;;;;5054002;28;20025;-76
2021/08/15 01:50:42;;;;;;;47.50;34.22;;;;;;;;;;5053684;28;20106;-76
2021/08/15 01:53:09;;;;;;;52.90;41.95;;;;;;;;;;5052562;28;20022;-75
2021/08/15 01:55:35;;;;;;;46.83;34.25;;;;;;;;;;5053598;28;20040;-77
2021/08/15 01:58:00;;;;;;;43.20;28.70;;;;;;;;;;5053398;28;20123;-76
2021/08/15 02:00:26;;;;;;;37.10;27.65;;;;;;;;;;5053662;28;20471;-75
2021/08/15 02:02:51;;;;;;;48.67;33.10;;;;;;;;;;5053222;28;20551;-76
2021/08/15 02:05:19;;;;;;;44.17;32.03;;;;;;;;;;5053399;28;20025;-75
2021/08/15 02:07:45;;;;;;;45.38;28.92;;;;;;;;;;5053186;28;20110;-76
2021/08/15 02:10:11;;;;;;;35.45;25.95;;;;;;;;;;5053003;28;20496;-76
2021/08/15 02:12:37;;;;;;;36.50;23.38;;;;;;;;;;5052669;28;20159;-75
2021/08/15 02:15:02;;;;;;;29.58;20.38;;;;;;;;;;5053132;28;20479;-75
2021/08/15 02:17:28;;;;;;;28.08;19.85;;;;;;;;;;5053211;28;20479;-76
2021/08/15 02:19:53;;;;;;;23.50;15.65;;;;;;;;;;5053207;28;20153;-75
2021/08/15 02:22:19;;;;;;;26.90;15.60;;;;;;;;;;5052979;28;20494;-76
2021/08/15 02:24:44;;;;;;;22.30;14.73;;;;;;;;;;5053393;28;20064;-76
2021/08/15 02:27:10;;;;;;;;;;;;;;;;;;5053287;28;20048;-75
2021/08/15 02:29:35;;;;;;;20.85;14.60;;;;;;;;;;5053215;28;19909;-76
2021/08/15 02:32:01;;;;;;;16.23;12.25;;;;;;;;;;5052783;28;20067;-77
2021/08/15 02:34:28;;;;;;;20.63;13.55;;;;;;;;;;5053169;28;20068;-76
2021/08/15 02:36:53;;;;;;;20.02;13.13;;;;;;;;;;5052705;28;20135;-75
2021/08/15 02:39:19;;;;;;;19.40;13.02;;;;;;;;;;5034819;28;20111;-76
2021/08/15 02:41:44;;;;;;;18.40;12.13;;;;;;;;;;5052538;28;20048;-76
2021/08/15 02:44:10;;;;;;;;;;;;;;;;;;5053314;28;20024;-76
2021/08/15 02:46:35;;;;;;;13.75;9.13;;;;;;;;;;5052382;28;19931;-76
2021/08/15 02:49:01;;;;;;;12.50;9.30;;;;;;;;;;5052772;28;20028;-76
2021/08/15 02:51:26;;;;;;;13.45;8.32;;;;;;;;;;5052492;28;20048;-75
2021/08/15 02:53:53;;;;;;;10.48;7.65;;;;;;;;;;5052379;28;20056;-74
2021/08/15 02:56:18;;;;;;;10.68;8.27;;;;;;;;;;5052393;28;20450;-76
2021/08/15 02:58:44;;;;;;;14.18;8.50;;;;;;;;;;5052502;28;20107;-76
2021/08/15 03:01:09;;;;;;;14.57;9.02;;;;;;;;;;5052266;28;20028;-76
2021/08/15 03:03:36;;;;;;;15.82;8.68;;;;;;;;;;5052408;28;20033;-75
2021/08/15 03:06:01;;;;;;;10.35;7.88;;;;;;;;;;5052170;28;20036;-75
2021/08/15 03:08:27;;;;;;;15.73;8.20;;;;;;;;;;5052114;28;20053;-75
2021/08/15 03:10:52;;;;;;;10.93;7.68;;;;;;;;;;5052488;28;20037;-75
2021/08/15 03:13:18;;;;;;;15.70;8.70;;;;;;;;;;5052572;28;20111;-76
2021/08/15 03:15:43;;;;;;;17.27;8.23;;;;;;;;;;5052401;28;20029;-76
2021/08/15 03:18:12;;;;;;;11.05;7.13;;;;;;;;;;5052246;28;20115;-76
2021/08/15 03:20:38;;;;;;;15.23;8.10;;;;;;;;;;5035656;28;20155;-76
2021/08/15 03:23:03;;;;;;;12.38;8.80;;;;;;;;;;5034172;28;20041;-76
2021/08/15 03:25:29;;;;;;;11.52;8.35;;;;;;;;;;5051355;28;20021;-76
2021/08/15 03:27:54;;;;;;;14.50;8.35;;;;;;;;;;5052241;28;20033;-77
2021/08/15 03:30:20;;;;;;;11.02;7.45;;;;;;;;;;5052098;28;20143;-76
2021/08/15 03:32:45;;;;;;;13.38;7.72;;;;;;;;;;5052096;28;20029;-75
2021/08/15 03:35:11;;;;;;;11.75;7.72;;;;;;;;;;5052093;28;20116;-76
2021/08/15 03:37:36;;;;;;;14.52;7.15;;;;;;;;;;5051808;28;20043;-75
2021/08/15 03:40:02;;;;;;;9.82;6.50;;;;;;;;;;5051848;28;20039;-75
2021/08/15 03:42:28;;;;;;;11.73;6.13;;;;;;;;;;5051717;28;20104;-76
2021/08/15 03:44:54;;;;;;;11.90;6.25;;;;;;;;;;5051772;28;20039;-76
2021/08/15 03:47:20;;;;;;;9.85;6.00;;;;;;;;;;5051508;28;20032;-75
2021/08/15 03:49:45;;;;;;;11.75;6.10;;;;;;;;;;5051630;28;20088;-76
2021/08/15 03:52:11;;;;;;;14.80;6.65;;;;;;;;;;5051577;28;20111;-75
2021/08/15 03:54:38;;;;;;;9.45;5.72;;;;;;;;;;5051533;28;20060;-76
2021/08/15 03:57:03;;;;;;;10.10;6.18;;;;;;;;;;5033650;28;20132;-76
2021/08/15 03:59:29;;;;;;;12.93;6.40;;;;;;;;;;5051946;28;20459;-76
2021/08/15 04:01:54;;;;;;;11.60;5.85;;;;;;;;;;5051512;28;20503;-77
2021/08/15 04:04:20;;;;;;;11.30;6.40;;;;;;;;;;5051709;28;20395;-76
2021/08/15 04:06:45;;;;;;;10.50;6.47;;;;;;;;;;5051455;28;20025;-76
2021/08/15 04:09:11;;;;;;;10.07;6.82;;;;;;;;;;5051292;28;20053;-77
2021/08/15 04:11:36;;;;;;;11.48;6.43;;;;;;;;;;5051682;28;20025;-76
2021/08/15 04:14:02;;;;;;;9.75;5.63;;;;;;;;;;5051326;28;20033;-76
2021/08/15 04:16:28;;;;;;;11.80;5.30;;;;;;;;;;5051354;28;20032;-76
2021/08/15 04:18:55;;;;;;;7.13;4.53;;;;;;;;;;5051441;28;20091;-77
2021/08/15 04:21:20;;;;;;;10.50;5.53;;;;;;;;;;5033339;28;20468;-75
2021/08/15 04:23:46;;;;;;;8.85;5.47;;;;;;;;;;5051264;28;20053;-76
2021/08/15 04:26:11;;;;;;;9.52;5.15;;;;;;;;;;5051189;28;20025;-76
2021/08/15 04:28:37;;;;;;;11.75;5.32;;;;;;;;;;5051209;28;20029;-77
2021/08/15 04:31:02;;;;;;;8.00;5.68;;;;;;;;;;5051781;28;20079;-77
2021/08/15 04:33:28;;;;;;;10.52;5.95;;;;;;;;;;5051194;28;20029;-76
2021/08/15 04:35:54;;;;;;;14.73;9.10;;;;;;;;;;5051512;28;20025;-76
2021/08/15 04:38:21;;;;;;;14.27;7.57;;;;;;;;;;5054838;28;20506;-76
2021/08/15 04:40:47;;;;;;;15.77;8.73;;;;;;;;;;5055104;28;20021;-76
2021/08/15 04:43:12;;;;;;;23.55;15.93;;;;;;;;;;5054816;28;20036;-76
2021/08/15 04:45:38;;;;;;;30.83;19.20;;;;;;;;;;5054868;28;20391;-76
2021/08/15 04:48:03;;;;;;;31.95;20.63;;;;;;;;;;5054911;28;20025;-77
2021/08/15 04:50:29;;;;;;;37.08;19.75;;;;;;;;;;5054510;28;20083;-76
2021/08/15 04:52:55;;;;;;;35.38;20.05;;;;;;;;;;5054757;28;20029;-77
2021/08/15 04:55:20;;;;;;;34.38;19.73;;;;;;;;;;5055357;28;20116;-76
2021/08/15 04:57:46;;;;;;;36.65;19.83;;;;;;;;;;5055059;28;20068;-76
2021/08/15 05:00:11;;;;;;;32.25;17.67;;;;;;;;;;5054844;28;20028;-76
2021/08/15 05:02:37;;;;;;;34.92;16.85;;;;;;;;;;5054781;28;20025;-77
2021/08/15 05:05:03;;;;;;;33.67;16.85;;;;;;;;;;5036683;28;20028;-77
2021/08/15 05:07:28;;;;;;;30.65;14.80;;;;;;;;;;5054652;28;20024;-77
2021/08/15 05:09:54;;;;;;;29.02;12.63;;;;;;;;;;5054676;28;20085;-77
2021/08/15 05:12:19;;;;;;;23.35;12.73;;;;;;;;;;5054444;28;20060;-77
2021/08/15 05:14:45;;;;;;;24.15;12.15;;;;;;;;;;5054562;28;20036;-77
2021/08/15 05:17:10;;;;;;;19.90;10.55;;;;;;;;;;5054365;28;20045;-78
2021/08/15 05:19:36;;;;;;;23.23;10.32;;;;;;;;;;5054540;28;20033;-77
2021/08/15 05:22:01;;;;;;;24.80;9.32;;;;;;;;;;5054470;28;20033;-77
2021/08/15 05:24:27;;;;;;;15.82;7.60;;;;;;;;;;5054824;28;20028;-77
2021/08/15 05:26:53;;;;;;;18.08;7.80;;;;;;;;;;5054015;28;20024;-78
2021/08/15 05:29:18;;;;;;;13.07;6.22;;;;;;;;;;5055010;28;20020;-76
2021/08/15 05:31:44;;;;;;;14.02;6.93;;;;;;;;;;5054155;28;20024;-76
2021/08/15 05:34:09;;;;;;;10.48;6.05;;;;;;;;;;5054349;28;20021;-78
2021/08/15 05:36:35;;;;;;;11.02;6.82;;;;;;;;;;5053725;28;20357;-77
2021/08/15 05:39:01;;;;;;;8.90;5.60;;;;;;;;;;5054931;28;20051;-79
2021/08/15 05:41:26;;;;;;;28.33;10.18;;;;;;;;;;5053753;28;20028;-76
2021/08/15 05:43:51;;;;;;;30.02;14.65;;;;;;;;;;5054180;28;20025;-76
2021/08/15 05:46:17;;;;;;;26.02;12.70;;;;;;;;;;5054038;28;20028;-76
2021/08/15 05:48:46;;;;;;;30.08;13.32;;;;;;;;;;5053386;28;20051;-79
2021/08/15 05:51:12;;;;;;;33.22;14.18;;;;;;;;;;5035597;28;20047;-78
2021/08/15 05:53:37;;;;;;;27.52;12.20;;;;;;;;;;5053971;28;20483;-78
2021/08/15 05:56:03;;;;;;;23.52;10.77;;;;;;;;;;5053698;28;20033;-77
2021/08/15 05:58:29;;;;;;;28.95;13.85;;;;;;;;;;5053904;28;20032;-78
2021/08/15 06:00:54;;;;;;;23.10;12.93;;;;;;;;;;5053660;28;20025;-77
2021/08/15 06:03:20;;;;;;;20.65;11.07;;;;;;;;;;5053519;28;20025;-77
2021/08/15 06:05:45;;;;;;;17.38;9.77;;;;;;;;;;5053429;28;20112;-77
2021/08/15 06:08:11;;;;;;;19.23;11.40;;;;;;;;;;5053427;28;20115;-78
2021/08/15 06:10:38;;;;;;;20.00;12.57;;;;;;;;;;5053365;28;20056;-77
2021/08/15 06:13:03;;;;;;;18.85;12.82;;;;;;;;;;5053228;28;20048;-77
2021/08/15 06:15:30;;;;;;;24.20;12.45;;;;;;;;;;5053573;28;20060;-78
2021/08/15 06:17:55;;;;;;;23.70;12.10;;;;;;;;;;5053271;28;20068;-77
2021/08/15 06:20:21;;;;;;;25.13;14.82;;;;;;;;;;5053330;28;20025;-78
2021/08/15 06:22:47;;;;;;;21.77;13.10;;;;;;;;;;5053340;28;20486;-77
2021/08/15 06:25:13;;;;;;;21.05;11.07;;;;;;;;;;5053236;28;20061;-77
2021/08/15 06:27:45;;;;;;;20.75;9.88;;;;;;;;;;5053287;28;20028;-78
2021/08/15 06:30:11;;;;;;;16.00;8.45;;;;;;;;;;5053609;28;20025;-78
2021/08/15 06:32:46;;;;;;;17.67;8.93;;;;;;;;;;5053579;28;20029;-77
2021/08/15 06:35:12;;;;;;;;;;;;;;;;;;5053739;28;20497;-78
2021/08/15 06:37:37;;;;;;;9.87;5.80;;;;;;;;;;5053211;28;19917;-77
2021/08/15 06:40:03;;;;;;;9.13;4.95;;;;;;;;;;5053112;28;20028;-77
2021/08/15 06:42:28;;;;;;;5.85;3.28;;;;;;;;;;5053052;28;20479;-79
2021/08/15 06:44:54;;;;;;;6.68;3.80;;;;;;;;;;5052642;28;20059;-77
2021/08/15 06:47:19;;;;;;;4.97;3.10;;;;;;;;;;5052768;28;20170;-77
2021/08/15 06:49:45;;;;;;;7.60;3.40;;;;;;;;;;5052882;28;20040;-77
2021/08/15 06:52:35;;;;;;;6.85;3.17;;;;;;;;;;5055203;28;20033;-83
2021/08/15 06:55:01;;;;;;;10.00;3.53;;;;;;;;;;5053630;28;20386;-81
2021/08/15 06:57:26;;;;;;;5.50;3.10;;;;;;;;;;5052970;28;20132;-81
2021/08/15 06:59:53;;;;;;;6.07;3.05;;;;;;;;;;5053813;28;20111;-82
2021/08/15 07:02:18;;;;;;;10.80;3.20;;;;;;;;;;5053311;28;20088;-81
2021/08/15 07:04:47;;;;;;;6.70;3.17;;;;;;;;;;5055158;28;20067;-80
2021/08/15 07:07:12;;;;;;;5.72;2.85;;;;;;;;;;5053049;28;20049;-81
2021/08/15 07:09:38;;;;;;;6.18;3.10;;;;;;;;;;5034763;28;20053;-81
2021/08/15 07:12:04;;;;;;;5.35;2.72;;;;;;;;;;5053090;28;20024;-82
2021/08/15 07:14:29;;;;;;;6.93;3.03;;;;;;;;;;5053730;28;20025;-81
2021/08/15 07:16:58;;;;;;;6.32;3.25;;;;;;;;;;5053817;28;20156;-81
2021/08/15 07:19:24;;;;;;;6.03;2.72;;;;;;;;;;5052673;28;20079;-82
2021/08/15 07:21:50;;;;;;;5.82;2.90;;;;;;;;;;5053262;28;20060;-81
2021/08/15 07:24:15;;;;;;;5.70;2.67;;;;;;;;;;5035595;28;20461;-81
2021/08/15 07:26:41;;;;;;;5.03;3.15;;;;;;;;;;5054665;28;20025;-82
2021/08/15 07:29:07;;;;;;;7.50;3.05;;;;;;;;;;5052807;28;20024;-82
2021/08/15 07:31:33;;;;;;;6.95;3.20;;;;;;;;;;5053051;28;20109;-82
2021/08/15 07:33:59;;;;;;;8.70;2.92;;;;;;;;;;5053142;28;20544;-81
2021/08/15 07:36:24;;;;;;;4.38;2.80;;;;;;;;;;5053354;28;20064;-80
2021/08/15 07:38:50;;;;;;;6.70;2.97;;;;;;;;;;5057333;28;20036;-81
2021/08/15 07:41:17;;;;;;;4.72;3.10;;;;;;;;;;5053512;28;20079;-82
2021/08/15 07:43:43;;;;;;;4.97;2.63;;;;;;;;;;5052898;28;20036;-81
2021/08/15 07:46:13;;;;;;;4.38;2.63;;;;;;;;;;5034589;28;20021;-82
2021/08/15 07:48:39;;;;;;;5.20;2.50;;;;;;;;;;5053859;28;20458;-82
2021/08/15 07:51:04;;;;;;;3.83;2.60;;;;;;;;;;5053085;28;20021;-82
2021/08/15 07:53:30;;;;;;;11.40;3.20;;;;;;;;;;5052581;28;20207;-81
2021/08/15 07:55:56;;;;;;;6.03;3.08;;;;;;;;;;5052692;28;20029;-81
2021/08/15 07:58:22;;;;;;;5.43;3.15;;;;;;;;;;5054396;28;20494;-81
2021/08/15 08:00:48;;;;;;;3.67;2.88;;;;;;;;;;5052287;28;20040;-81
2021/08/15 08:03:14;;;;;;;6.38;2.90;;;;;;;;;;5051984;28;20037;-82
2021/08/15 08:05:40;;;;;;;17.30;3.22;;;;;;;;;;5051925;28;20032;-81
2021/08/15 08:08:06;;;;;;;5.40;3.00;;;;;;;;;;5052753;28;20036;-81
2021/08/15 08:10:32;;;;;;;7.28;2.97;;;;;;;;;;5034386;28;20059;-82
2021/08/15 08:12:58;;;;;;;3.38;2.50;;;;;;;;;;5038314;28;20147;-81
2021/08/15 08:15:23;;;;;;;8.63;2.88;;;;;;;;;;5056324;28;20025;-81
2021/08/15 08:17:49;;;;;;;7.20;3.10;;;;;;;;;;5056035;28;20045;-81
2021/08/15 08:20:17;;;;;;;8.95;3.45;;;;;;;;;;5058061;28;20403;-80
2021/08/15 08:22:43;;;;;;;21.85;6.55;;;;;;;;;;5056685;28;20029;-80
2021/08/15 08:25:09;;;;;;;8.40;3.17;;;;;;;;;;5056509;28;20108;-80
2021/08/15 08:27:34;;;;;;;8.43;3.60;;;;;;;;;;5056045;28;20063;-82
2021/08/15 08:30:00;;;;;;;10.40;5.10;;;;;;;;;;5056785;28;20420;-81
2021/08/15 08:32:25;;;;;;;7.15;3.95;;;;;;;;;;5056328;28;20130;-82
2021/08/15 08:34:51;;;;;;;9.77;3.80;;;;;;;;;;5056165;28;20044;-82
2021/08/15 08:37:18;;;;;;;9.35;7.13;;;;;;;;;;5056381;28;20115;-81
2021/08/15 08:39:44;;;;;;;12.77;10.32;;;;;;;;;;5056749;28;20084;-81
2021/08/15 08:42:11;;;;;;;64.55;43.72;;;;;;;;;;5055764;28;20540;-82
2021/08/15 08:44:37;;;;;;;18.58;8.40;;;;;;;;;;5053526;28;20029;-81
2021/08/15 08:47:06;;;;;;;76.88;69.10;;;;;;;;;;5046435;28;20033;-81
2021/08/15 08:49:36;;;;;;;5.07;2.67;;;;;;;;;;5050684;28;20020;-82
2021/08/15 08:52:02;;;;;;;4.55;3.10;;;;;;;;;;5046938;28;20491;-81
2021/08/15 08:54:28;;;;;;;7.93;2.65;;;;;;;;;;5053189;28;20122;-80
2021/08/15 08:56:54;;;;;;;3.42;2.40;;;;;;;;;;5036857;28;20037;-80
2021/08/15 08:59:21;;;;;;;2.83;2.38;;;;;;;;;;5055013;28;20151;-80
2021/08/15 09:01:47;;;;;;;4.35;2.22;;;;;;;;;;5055947;28;20450;-80
2021/08/15 09:04:13;;;;;;;5.75;2.50;;;;;;;;;;5055112;28;20029;-81
2021/08/15 09:06:40;;;;;;;3.70;2.30;;;;;;;;;;5054729;28;20140;-80
2021/08/15 09:09:12;;;;;;;4.60;2.70;;;;;;;;;;5054737;28;20061;-80
2021/08/15 09:11:38;;;;;;;4.65;2.38;;;;;;;;;;5055758;28;20033;-80
2021/08/15 09:14:04;;;;;;;3.42;2.20;;;;;;;;;;5056399;28;20033;-80
2021/08/15 09:16:48;;;;;;;5.38;2.58;;;;;;;;;;5053765;28;20573;-81
2021/08/15 09:19:24;;;;;;;6.82;2.47;;;;;;;;;;5044792;28;20037;-80
2021/08/15 09:21:49;;;;;;;;;;;;;;;;;;5035417;28;20033;-81
2021/08/15 09:24:14;;;;;;;5.77;2.77;;;;;;;;;;5041140;28;20294;-80
2021/08/15 09:26:53;;;;;;;3.58;2.60;;;;;;;;;;5055821;28;20029;-81
2021/08/15 09:29:18;;;;;;;5.18;2.33;;;;;;;;;;5051047;28;20036;-80
2021/08/15 09:31:45;;;;;;;9.05;2.80;;;;;;;;;;5034350;28;20476;-80
2021/08/15 09:34:22;;;;;;;3.92;2.42;;;;;;;;;;5043818;28;20028;-81
2021/08/15 09:36:48;;;;;;;9.63;2.78;;;;;;;;;;5055087;28;20029;-80
2021/08/15 09:39:13;;;;;;;3.15;2.55;;;;;;;;;;5044463;28;20037;-80
2021/08/15 09:41:40;;;;;;;4.25;2.40;;;;;;;;;;5034436;28;20025;-80
2021/08/15 09:44:20;;;;;;;3.00;2.30;;;;;;;;;;5035551;28;20119;-81
2021/08/15 09:46:59;;;;;;;3.65;2.58;;;;;;;;;;5016366;28;20120;-81
2021/08/15 09:49:35;;;;;;;10.65;2.47;;;;;;;;;;5038661;28;20550;-81
2021/08/15 09:52:00;;;;;;;5.68;2.13;;;;;;;;;;5054960;28;20029;-81
2021/08/15 09:54:26;;;;;;;4.55;2.33;;;;;;;;;;5036485;28;20091;-81
2021/08/15 09:56:51;;;;;;;7.25;2.70;;;;;;;;;;5045430;28;20560;-81
2021/08/15 09:59:18;;;;;;;4.63;2.60;;;;;;;;;;5045856;28;20041;-81
2021/08/15 10:01:45;;;;;;;5.95;2.75;;;;;;;;;;5050345;28;20033;-82
2021/08/15 10:04:11;;;;;;;6.78;3.00;;;;;;;;;;5054131;28;20028;-81
2021/08/15 10:06:38;;;;;;;5.07;2.55;;;;;;;;;;5045619;28;20045;-81
2021/08/15 10:09:05;;;;;;;3.65;2.10;;;;;;;;;;5039269;28;20075;-79
2021/08/15 10:11:31;;;;;;;8.02;2.70;;;;;;;;;;5045901;28;20033;-80
2021/08/15 10:14:00;;;;;;;5.22;2.55;;;;;;;;;;5048924;28;20068;-79
2021/08/15 10:16:34;;;;;;;4.70;2.83;;;;;;;;;;5049804;28;20399;-80
2021/08/15 10:19:01;;;;;;;4.60;2.75;;;;;;;;;;5034847;28;20041;-82
2021/08/15 10:21:28;;;;;;;3.47;2.38;;;;;;;;;;5033948;28;20037;-80
2021/08/15 10:24:04;;;;;;;3.67;2.45;;;;;;;;;;5066792;28;20432;-80
2021/08/15 10:26:36;;;;;;;6.45;2.53;;;;;;;;;;5050013;28;20175;-80
2021/08/15 10:29:03;;;;;;;3.60;2.17;;;;;;;;;;5033618;28;20546;-79
2021/08/15 10:31:47;;;;;;;4.00;2.08;;;;;;;;;;5036720;28;20016;-81
2021/08/15 10:34:12;;;;;;;5.35;2.53;;;;;;;;;;5052685;28;20044;-81
2021/08/15 10:36:39;;;;;;;5.60;2.90;;;;;;;;;;5071686;28;20024;-80
2021/08/15 10:39:25;;;;;;;5.60;3.35;;;;;;;;;;5053226;28;20052;-80
2021/08/15 10:41:51;;;;;;;6.60;3.65;;;;;;;;;;5034214;28;20074;-80
2021/08/15 10:44:17;;;;;;;6.97;3.80;;;;;;;;;;5052763;28;20060;-80
2021/08/15 10:47:01;;;;;;;5.28;2.58;;;;;;;;;;5052471;28;20525;-80
2021/08/15 10:49:45;;;;;;;7.90;2.40;;;;;;;;;;5048441;28;20106;-81
2021/08/15 10:52:25;;;;;;;4.72;2.55;;;;;;;;;;5052390;28;20151;-81
2021/08/15 10:55:00;;;;;;;9.13;2.90;;;;;;;;;;5052207;28;20029;-80
2021/08/15 10:57:34;;;;;;;5.15;2.63;;;;;;;;;;5062530;28;20128;-81
2021/08/15 11:00:00;;;;;;;4.25;2.10;;;;;;;;;;5062144;28;20040;-80
2021/08/15 11:02:32;;;;;;;4.10;2.25;;;;;;;;;;5052853;28;20032;-80
2021/08/15 11:05:01;;;;;;;4.80;2.63;;;;;;;;;;5051938;28;20493;-80
2021/08/15 11:07:36;;;;;;;3.58;2.03;;;;;;;;;;5052280;28;20033;-79
2021/08/15 11:10:02;;;;;;;4.80;2.30;;;;;;;;;;5050913;28;20064;-80
2021/08/15 11:12:28;;;;;;;3.72;2.40;;;;;;;;;;5052760;28;20037;-81
2021/08/15 11:15:01;;;;;;;7.88;2.75;;;;;;;;;;5051893;28;20135;-80
2021/08/15 11:17:27;;;;;;;5.03;2.67;;;;;;;;;;5052097;28;20037;-80
2021/08/15 11:19:52;;;;;;;7.25;2.30;;;;;;;;;;5052338;28;20020;-81
2021/08/15 11:22:28;;;;;;;2.83;2.13;;;;;;;;;;5052373;28;20078;-81
2021/08/15 11:25:01;;;;;;;3.72;2.20;;;;;;;;;;5051810;28;20029;-81
2021/08/15 11:27:31;;;;;;;8.38;2.67;;;;;;;;;;5052624;28;20035;-80
2021/08/15 11:29:58;;;;;;;5.32;2.10;;;;;;;;;;5052275;28;20107;-81
2021/08/15 11:32:28;;;;;;;7.10;2.40;;;;;;;;;;5051974;28;20029;-80
2021/08/15 11:34:55;;;;;;;4.95;2.30;;;;;;;;;;5052093;28;20029;-79
2021/08/15 11:37:23;;;;;;;7.55;2.17;;;;;;;;;;5051813;28;20089;-81
2021/08/15 11:39:49;;;;;;;7.97;2.63;;;;;;;;;;5051830;28;20407;-81
2021/08/15 11:42:17;;;;;;;12.55;2.78;;;;;;;;;;5035006;28;20041;-86
2021/08/15 11:44:53;;;;;;;5.43;2.25;;;;;;;;;;5035302;28;20033;-86
2021/08/15 11:47:29;;;;;;;4.70;2.47;;;;;;;;;;5033894;28;20056;-87
2021/08/15 11:49:54;;;;;;;;;;;;;;;;;;5031349;28;20396;-87
2021/08/15 11:52:24;;;;;;;5.77;2.40;;;;;;;;;;5036175;28;19924;-86
2021/08/15 11:54:50;;;;;;;4.15;2.40;;;;;;;;;;5039060;28;20037;-86
2021/08/15 11:57:16;;;;;;;4.90;2.17;;;;;;;;;;5034060;28;20045;-86
2021/08/15 11:59:43;;;;;;;3.42;2.20;;;;;;;;;;5038815;28;20400;-87
2021/08/15 12:02:16;;;;;;;3.42;1.98;;;;;;;;;;5032659;28;20036;-88
2021/08/15 12:04:43;;;;;;;3.13;2.30;;;;;;;;;;5033025;28;20112;-87
2021/08/15 12:07:08;;;;;;;5.40;2.17;;;;;;;;;;5032889;28;20029;-87
2021/08/15 12:09:34;;;;;;;5.03;2.28;;;;;;;;;;5014276;28;20149;-86
2021/08/15 12:12:04;;;;;;;4.80;2.40;;;;;;;;;;5028215;28;20529;-86
2021/08/15 12:14:37;;;;;;;5.22;2.30;;;;;;;;;;5052887;28;20490;-87
2021/08/15 12:17:03;;;;;;;4.70;2.40;;;;;;;;;;5053056;28;20146;-86
2021/08/15 12:19:33;;;;;;;4.68;2.30;;;;;;;;;;5034595;28;20060;-87
2021/08/15 12:22:00;;;;;;;4.70;2.25;;;;;;;;;;5052420;28;20029;-85
2021/08/15 12:24:27;;;;;;;6.20;3.58;;;;;;;;;;5052290;28;20037;-85
2021/08/15 12:26:59;;;;;;;8.90;3.55;;;;;;;;;;5033823;28;20033;-86
2021/08/15 12:29:27;;;;;;;14.77;10.38;;;;;;;;;;5054059;28;20033;-86
2021/08/15 12:32:12;;;;;;;4.18;2.38;;;;;;;;;;5034860;28;20033;-86
2021/08/15 12:34:39;;;;;;;7.70;4.67;;;;;;;;;;5053375;28;20039;-86
2021/08/15 12:37:21;;;;;;;43.28;13.73;;;;;;;;;;5053153;28;20098;-86
2021/08/15 12:39:47;;;;;;;3.97;2.42;;;;;;;;;;5035293;28;20063;-88
2021/08/15 12:42:14;;;;;;;5.63;2.75;;;;;;;;;;5033749;28;20028;-80
2021/08/15 12:44:59;;;;;;;18.55;12.07;;;;;;;;;;5033854;28;20102;-80
2021/08/15 12:47:33;;;;;;;4.43;2.33;;;;;;;;;;5050998;28;20106;-80
2021/08/15 12:50:03;;;;;;;6.85;2.85;;;;;;;;;;5051210;28;20811;-81
2021/08/15 12:52:39;;;;;;;5.05;2.40;;;;;;;;;;5051502;28;20033;-81
2021/08/15 12:55:24;;;;;;;5.50;2.30;;;;;;;;;;5052034;28;20032;-81
2021/08/15 12:57:52;;;;;;;4.25;2.10;;;;;;;;;;5035388;28;20025;-82
2021/08/15 13:00:17;;;;;;;4.22;2.35;;;;;;;;;;5054205;28;20055;-80
2021/08/15 13:02:45;;;;;;;6.13;2.65;;;;;;;;;;5054886;28;20020;-80
2021/08/15 13:05:11;;;;;;;2.90;2.28;;;;;;;;;;5054593;28;20567;-80
2021/08/15 13:07:36;;;;;;;4.93;2.30;;;;;;;;;;5054486;28;20051;-80
2021/08/15 13:10:03;;;;;;;5.65;2.10;;;;;;;;;;5056677;28;20049;-80
2021/08/15 13:12:29;;;;;;;3.45;2.10;;;;;;;;;;5054229;28;20029;-80
2021/08/15 13:14:54;;;;;;;3.80;2.22;;;;;;;;;;5050527;28;20036;-80
2021/08/15 13:17:21;;;;;;;3.25;2.40;;;;;;;;;;5046953;28;20033;-81
2021/08/15 13:19:47;;;;;;;4.18;2.33;;;;;;;;;;5046504;28;20053;-81
2021/08/15 13:22:13;;;;;;;3.83;2.20;;;;;;;;;;5022836;28;20421;-81
2021/08/15 13:24:39;;;;;;;5.28;2.30;;;;;;;;;;5055295;28;20091;-81
2021/08/15 13:27:05;;;;;;;7.78;2.28;;;;;;;;;;5054514;28;20111;-80
2021/08/15 13:29:31;;;;;;;6.75;2.60;;;;;;;;;;5054761;28;20032;-79
2021/08/15 13:31:57;;;;;;;5.75;2.63;;;;;;;;;;5054804;28;20025;-79
2021/08/15 13:34:23;;;;;;;5.63;2.55;;;;;;;;;;5054789;28;20071;-81
2021/08/15 13:36:48;;;;;;;9.65;2.45;;;;;;;;;;5053542;28;20052;-81
2021/08/15 13:39:14;;;;;;;5.80;2.22;;;;;;;;;;5055021;28;20040;-81
2021/08/15 13:41:40;;;;;;;4.28;2.40;;;;;;;;;;5054332;28;20056;-81
2021/08/15 13:44:05;;;;;;;5.85;2.35;;;;;;;;;;5054652;28;20060;-81
2021/08/15 13:46:31;;;;;;;5.00;2.42;;;;;;;;;;5052834;28;20052;-82
2021/08/15 13:48:57;;;;;;;3.30;2.08;;;;;;;;;;5054402;28;20406;-81
2021/08/15 13:51:22;;;;;;;6.97;2.55;;;;;;;;;;5054077;28;20113;-81
2021/08/15 13:53:48;;;;;;;9.27;2.75;;;;;;;;;;5055039;28;20025;-81
2021/08/15 13:56:13;;;;;;;4.28;2.42;;;;;;;;;;5054569;28;20033;-81
2021/08/15 13:58:39;;;;;;;4.97;2.17;;;;;;;;;;5053996;28;20051;-81
2021/08/15 14:01:04;;;;;;;3.63;2.33;;;;;;;;;;5052755;28;20106;-81
2021/08/15 14:03:30;;;;;;;4.47;2.35;;;;;;;;;;5054361;28;20044;-81
2021/08/15 14:05:55;;;;;;;9.65;2.60;;;;;;;;;;5053884;28;20061;-81
2021/08/15 14:08:21;;;;;;;3.85;2.20;;;;;;;;;;5053930;28;20113;-80
2021/08/15 14:10:46;;;;;;;4.45;2.20;;;;;;;;;;5053170;28;20079;-81
2021/08/15 14:13:12;;;;;;;2.90;2.15;;;;;;;;;;5045106;28;20025;-82
2021/08/15 14:15:39;;;;;;;3.80;2.55;;;;;;;;;;5053363;28;20036;-81
2021/08/15 14:18:05;;;;;;;4.35;2.30;;;;;;;;;;5054359;28;20037;-81
2021/08/15 14:20:30;;;;;;;4.47;2.50;;;;;;;;;;5053432;28;20040;-81
2021/08/15 14:22:56;;;;;;;5.43;2.17;;;;;;;;;;5053937;28;20463;-82
2021/08/15 14:25:21;;;;;;;3.80;2.25;;;;;;;;;;5053576;28;20425;-81
2021/08/15 14:27:47;;;;;;;4.75;2.50;;;;;;;;;;5052896;28;20515;-81
2021/08/15 14:30:14;;;;;;;5.25;2.20;;;;;;;;;;5053812;28;20033;-81
2021/08/15 14:32:40;;;;;;;5.68;2.38;;;;;;;;;;5054166;28;20380;-81